Time;durP1;ratioP1;P1;durP2;ratioP2;P2;SDS_P1;SDS_P2;PMS_P1;PMS_P2;Temp;Humidity;BMP_temperature;BMP_pressure;BME280_temperature;BME280_humidity;BME280_pressure;Samples;Min_cycle;Max_cycle;Signal;HPM_P1;HPM_P2
2022/08/10 00:02:35;;;;;;;0.22;0.20;;;;;;;;;;5012880;28;20080;-71
2022/08/10 00:05:04;;;;;;;0.13;0.13;;;;;;;;;;5024786;28;20580;-69
2022/08/10 00:07:33;;;;;;;0.25;0.20;;;;;;;;;;5018533;28;20537;-69
2022/08/10 00:10:03;;;;;;;0.47;0.32;;;;;;;;;;5027481;28;20053;-70
2022/08/10 00:12:31;;;;;;;0.30;0.30;;;;;;;;;;5025277;28;20088;-71
2022/08/10 00:15:21;;;;;;;0.10;0.10;;;;;;;;;;5021701;28;20052;-70
2022/08/10 00:18:09;;;;;;;0.52;0.52;;;;;;;;;;5016290;28;20513;-70
2022/08/10 00:20:57;;;;;;;0.15;0.15;;;;;;;;;;5025149;28;20547;-70
2022/08/10 00:23:26;;;;;;;0.60;0.40;;;;;;;;;;5018405;28;20051;-70
2022/08/10 00:25:56;;;;;;;0.17;0.15;;;;;;;;;;5024959;28;20045;-71
2022/08/10 00:28:24;;;;;;;1.27;0.50;;;;;;;;;;5022163;28;20519;-71
2022/08/10 00:30:53;;;;;;;0.30;0.30;;;;;;;;;;5022442;28;20129;-71
2022/08/10 00:33:21;;;;;;;0.75;0.30;;;;;;;;;;5021033;28;20491;-71
2022/08/10 00:35:50;;;;;;;2.72;0.20;;;;;;;;;;5024682;28;20037;-71
2022/08/10 00:38:18;;;;;;;0.10;0.10;;;;;;;;;;5020706;28;20084;-71
2022/08/10 00:40:46;;;;;;;0.52;0.20;;;;;;;;;;5022913;28;20559;-70
2022/08/10 00:43:16;;;;;;;0.38;0.30;;;;;;;;;;5017561;28;20549;-70
2022/08/10 00:45:51;;;;;;;0.20;0.20;;;;;;;;;;5022324;28;20490;-70
2022/08/10 00:48:27;;;;;;;0.20;0.20;;;;;;;;;;5022221;28;20104;-70
2022/08/10 00:50:56;;;;;;;0.22;0.22;;;;;;;;;;5014071;28;20074;-70
2022/08/10 00:53:24;;;;;;;0.40;0.30;;;;;;;;;;5015880;28;20477;-69
2022/08/10 00:55:53;;;;;;;0.25;0.20;;;;;;;;;;5016293;28;20071;-70
2022/08/10 00:58:43;;;;;;;1.30;0.30;;;;;;;;;;5020012;28;20523;-70
2022/08/10 01:01:12;;;;;;;0.40;0.30;;;;;;;;;;5021192;28;20556;-71
2022/08/10 01:04:01;;;;;;;0.10;0.10;;;;;;;;;;5023592;28;20046;-70
2022/08/10 01:06:54;;;;;;;0.88;0.30;;;;;;;;;;5037592;28;20042;-70
2022/08/10 01:09:28;;;;;;;0.52;0.40;;;;;;;;;;5041511;28;20057;-71
2022/08/10 01:14:53;;;;;;;0.30;0.20;;;;;;;;;;4965750;28;20145;-81
2022/08/10 01:17:24;;;;;;;1.38;0.93;;;;;;;;;;4970397;28;20085;-81
2022/08/10 01:20:17;;;;;;;0.50;0.47;;;;;;;;;;4973289;28;20145;-81
2022/08/10 01:23:17;;;;;;;0.00;0.00;;;;;;;;;;4972051;28;20047;-81
2022/08/10 01:25:50;;;;;;;0.20;0.20;;;;;;;;;;4968433;28;20057;-82
2022/08/10 01:28:46;;;;;;;0.10;0.10;;;;;;;;;;4972163;28;20407;-81
2022/08/10 01:31:20;;;;;;;0.40;0.30;;;;;;;;;;4969691;28;20124;-82
2022/08/10 01:33:52;;;;;;;0.20;0.20;;;;;;;;;;4971414;28;20047;-81
2022/08/10 01:36:33;;;;;;;0.30;0.30;;;;;;;;;;4956936;28;20043;-81
2022/08/10 01:39:02;;;;;;;0.32;0.32;;;;;;;;;;4952226;28;20071;-80
2022/08/10 01:41:34;;;;;;;0.10;0.10;;;;;;;;;;4951991;28;20078;-82
2022/08/10 01:44:15;;;;;;;0.15;0.10;;;;;;;;;;4948199;28;20512;-82
2022/08/10 01:46:51;;;;;;;0.28;0.20;;;;;;;;;;4966553;28;20046;-81
2022/08/10 01:49:24;;;;;;;0.28;0.25;;;;;;;;;;4971024;28;20043;-81
2022/08/10 01:51:55;;;;;;;0.30;0.30;;;;;;;;;;4970158;28;20054;-81
2022/08/10 01:54:27;;;;;;;;;;;;;;;;;;4967526;28;20047;-81
2022/08/10 01:56:56;;;;;;;0.38;0.35;;;;;;;;;;4970130;28;19929;-81
2022/08/10 01:59:29;;;;;;;1.75;0.20;;;;;;;;;;4970428;28;20101;-81
2022/08/10 02:02:00;;;;;;;0.52;0.30;;;;;;;;;;4970477;28;20106;-81
2022/08/10 02:04:30;;;;;;;0.10;0.10;;;;;;;;;;4968731;28;20078;-81
2022/08/10 02:07:00;;;;;;;0.30;0.30;;;;;;;;;;4969564;28;20085;-81
2022/08/10 02:09:31;;;;;;;0.65;0.45;;;;;;;;;;4970612;28;20558;-82
2022/08/10 02:12:01;;;;;;;0.22;0.22;;;;;;;;;;4971531;28;20594;-81
2022/08/10 02:14:37;;;;;;;0.20;0.20;;;;;;;;;;4950952;28;20404;-81
2022/08/10 02:17:08;;;;;;;0.52;0.40;;;;;;;;;;4950713;28;20487;-82
2022/08/10 02:20:00;;;;;;;0.35;0.35;;;;;;;;;;4950842;28;20472;-81
2022/08/10 02:22:29;;;;;;;0.25;0.25;;;;;;;;;;4950412;28;20047;-81
2022/08/10 02:25:14;;;;;;;0.30;0.30;;;;;;;;;;4949010;28;20059;-81
2022/08/10 02:28:03;;;;;;;0.30;0.30;;;;;;;;;;4950925;28;20047;-81
2022/08/10 02:30:31;;;;;;;1.25;0.55;;;;;;;;;;4950390;28;20078;-81
2022/08/10 02:33:02;;;;;;;0.80;0.30;;;;;;;;;;4950949;28;20044;-81
2022/08/10 02:35:32;;;;;;;1.20;0.50;;;;;;;;;;4953957;28;20051;-81
2022/08/10 02:38:21;;;;;;;0.20;0.20;;;;;;;;;;4945530;28;20055;-81
2022/08/10 02:41:12;;;;;;;0.30;0.30;;;;;;;;;;4950298;28;20434;-80
2022/08/10 02:44:03;;;;;;;0.15;0.15;;;;;;;;;;4949668;28;20047;-81
2022/08/10 02:46:55;;;;;;;0.20;0.20;;;;;;;;;;4950247;28;20392;-81
2022/08/10 02:49:29;;;;;;;0.30;0.30;;;;;;;;;;4950548;28;20138;-81
2022/08/10 02:51:59;;;;;;;0.50;0.40;;;;;;;;;;4953742;28;20126;-81
2022/08/10 02:54:37;;;;;;;0.22;0.22;;;;;;;;;;4949544;28;20122;-81
2022/08/10 02:57:09;;;;;;;0.20;0.20;;;;;;;;;;4932820;28;20087;-81
2022/08/10 02:59:40;;;;;;;0.20;0.20;;;;;;;;;;4931679;29;20107;-81
2022/08/10 03:02:11;;;;;;;0.30;0.30;;;;;;;;;;4934275;29;20079;-81
2022/08/10 03:04:42;;;;;;;0.10;0.10;;;;;;;;;;4935288;29;20080;-81
2022/08/10 03:07:24;;;;;;;;;;;;;;;;;;4951892;28;20086;-81
2022/08/10 03:10:11;;;;;;;;;;;;;;;;;;4954661;29;19926;-81
2022/08/10 03:12:41;;;;;;;0.43;0.43;;;;;;;;;;4959290;28;19981;-81
2022/08/10 03:15:12;;;;;;;0.73;0.50;;;;;;;;;;4968327;28;20079;-81
2022/08/10 03:17:43;;;;;;;0.30;0.30;;;;;;;;;;4972420;28;20506;-81
2022/08/10 03:20:29;;;;;;;0.28;0.28;;;;;;;;;;4961871;28;20046;-81
2022/08/10 03:23:07;;;;;;;0.22;0.22;;;;;;;;;;4970465;28;20479;-80
2022/08/10 03:25:36;;;;;;;0.30;0.30;;;;;;;;;;4972664;28;20082;-81
2022/08/10 03:28:05;;;;;;;0.17;0.17;;;;;;;;;;4973261;28;20146;-81
2022/08/10 03:30:34;;;;;;;0.20;0.20;;;;;;;;;;4973782;28;20050;-81
2022/08/10 03:33:03;;;;;;;1.00;0.43;;;;;;;;;;4972986;28;20122;-81
2022/08/10 03:35:33;;;;;;;0.35;0.35;;;;;;;;;;4967289;28;20567;-81
2022/08/10 03:38:01;;;;;;;0.30;0.30;;;;;;;;;;4972635;28;20550;-81
2022/08/10 03:40:31;;;;;;;0.40;0.40;;;;;;;;;;4973647;28;20134;-81
2022/08/10 03:43:16;;;;;;;0.35;0.35;;;;;;;;;;4967239;28;20082;-81
2022/08/10 03:45:48;;;;;;;0.50;0.30;;;;;;;;;;4971220;28;20082;-82
2022/08/10 03:48:23;;;;;;;1.02;1.00;;;;;;;;;;4971881;28;20042;-82
2022/08/10 03:51:13;;;;;;;0.25;0.25;;;;;;;;;;4966313;28;20039;-81
2022/08/10 03:53:42;;;;;;;1.08;0.73;;;;;;;;;;4967983;28;20141;-81
2022/08/10 03:56:31;;;;;;;0.20;0.20;;;;;;;;;;4971309;28;20043;-81
2022/08/10 03:59:00;;;;;;;0.20;0.20;;;;;;;;;;4971472;28;20043;-81
2022/08/10 04:01:29;;;;;;;0.30;0.30;;;;;;;;;;4971587;28;20086;-81
2022/08/10 04:04:17;;;;;;;0.50;0.50;;;;;;;;;;4967026;28;20043;-81
2022/08/10 04:06:53;;;;;;;0.20;0.20;;;;;;;;;;4972382;28;20086;-81
2022/08/10 04:09:23;;;;;;;0.20;0.20;;;;;;;;;;4968933;28;20181;-81
2022/08/10 04:11:57;;;;;;;0.32;0.32;;;;;;;;;;4969370;28;20047;-81
2022/08/10 04:14:25;;;;;;;0.38;0.38;;;;;;;;;;4971284;28;20699;-81
2022/08/10 04:17:14;;;;;;;1.08;1.05;;;;;;;;;;4963979;28;20473;-81
2022/08/10 04:19:43;;;;;;;0.25;0.25;;;;;;;;;;4968655;28;20169;-81
2022/08/10 04:22:15;;;;;;;0.30;0.30;;;;;;;;;;4972606;28;20129;-81
2022/08/10 04:24:45;;;;;;;0.22;0.22;;;;;;;;;;4971451;28;20102;-82
2022/08/10 04:27:14;;;;;;;0.32;0.32;;;;;;;;;;4972357;28;20094;-82
2022/08/10 04:29:43;;;;;;;0.20;0.20;;;;;;;;;;4970755;28;20058;-81
2022/08/10 04:32:11;;;;;;;0.28;0.28;;;;;;;;;;4969524;28;20564;-81
2022/08/10 04:34:41;;;;;;;1.05;0.32;;;;;;;;;;4971280;28;20074;-81
2022/08/10 04:37:10;;;;;;;0.15;0.15;;;;;;;;;;4970509;28;20135;-81
2022/08/10 04:39:40;;;;;;;0.20;0.20;;;;;;;;;;4971413;28;20061;-81
2022/08/10 04:42:09;;;;;;;0.45;0.45;;;;;;;;;;4968067;28;20050;-81
2022/08/10 04:44:37;;;;;;;0.40;0.40;;;;;;;;;;4970533;28;20109;-81
2022/08/10 04:47:06;;;;;;;0.40;0.40;;;;;;;;;;4967251;28;20108;-81
2022/08/10 04:49:35;;;;;;;0.30;0.30;;;;;;;;;;4966807;28;20043;-81
2022/08/10 04:52:23;;;;;;;0.20;0.20;;;;;;;;;;4968269;28;20051;-81
2022/08/10 04:54:54;;;;;;;0.52;0.52;;;;;;;;;;4970921;28;20043;-81
2022/08/10 04:57:22;;;;;;;0.30;0.30;;;;;;;;;;4970596;28;20059;-82
2022/08/10 04:59:50;;;;;;;0.73;0.40;;;;;;;;;;4968717;28;20046;-81
2022/08/10 05:02:19;;;;;;;0.22;0.20;;;;;;;;;;4969856;28;20092;-81
2022/08/10 05:04:58;;;;;;;0.32;0.10;;;;;;;;;;4967852;28;20411;-81
2022/08/10 05:07:27;;;;;;;0.40;0.40;;;;;;;;;;4967440;28;21323;-82
2022/08/10 05:09:57;;;;;;;0.40;0.40;;;;;;;;;;4963461;28;20058;-81
2022/08/10 05:12:32;;;;;;;0.40;0.40;;;;;;;;;;4966037;28;20066;-81
2022/08/10 05:15:05;;;;;;;0.30;0.30;;;;;;;;;;4966577;28;20063;-81
2022/08/10 05:17:34;;;;;;;0.13;0.13;;;;;;;;;;4968100;28;20130;-81
2022/08/10 05:20:03;;;;;;;0.77;0.30;;;;;;;;;;4967047;28;20043;-82
2022/08/10 05:22:38;;;;;;;0.13;0.13;;;;;;;;;;4967884;28;20058;-81
2022/08/10 05:25:09;;;;;;;0.30;0.30;;;;;;;;;;4965702;28;20054;-81
2022/08/10 05:27:38;;;;;;;0.73;0.40;;;;;;;;;;4962702;28;20490;-81
2022/08/10 05:30:07;;;;;;;0.10;0.10;;;;;;;;;;4963084;28;20082;-81
2022/08/10 05:32:36;;;;;;;0.52;0.52;;;;;;;;;;4965052;28;20141;-81
2022/08/10 05:35:25;;;;;;;0.63;0.43;;;;;;;;;;4966498;28;20063;-81
2022/08/10 05:37:55;;;;;;;0.30;0.30;;;;;;;;;;4961153;28;20097;-81
2022/08/10 05:40:43;;;;;;;0.20;0.20;;;;;;;;;;4961877;28;20051;-81
2022/08/10 05:43:15;;;;;;;0.55;0.52;;;;;;;;;;4964897;28;20165;-82
2022/08/10 05:45:44;;;;;;;0.25;0.25;;;;;;;;;;4964973;28;20076;-82
2022/08/10 05:48:33;;;;;;;0.38;0.30;;;;;;;;;;4966305;28;20049;-80
2022/08/10 05:51:22;;;;;;;0.30;0.30;;;;;;;;;;4964153;28;20348;-81
2022/08/10 05:53:51;;;;;;;0.40;0.40;;;;;;;;;;4967117;28;20093;-81
2022/08/10 05:56:33;;;;;;;0.30;0.30;;;;;;;;;;4966838;28;20054;-81
2022/08/10 05:59:22;;;;;;;0.30;0.30;;;;;;;;;;4960403;28;20047;-85
2022/08/10 06:02:13;;;;;;;0.20;0.20;;;;;;;;;;4969657;28;20063;-81
2022/08/10 06:05:05;;;;;;;0.50;0.50;;;;;;;;;;4968186;28;20077;-82
2022/08/10 06:07:35;;;;;;;0.30;0.30;;;;;;;;;;4967905;28;20070;-81
2022/08/10 06:10:05;;;;;;;0.20;0.20;;;;;;;;;;4967702;28;20581;-81
2022/08/10 06:12:39;;;;;;;0.43;0.43;;;;;;;;;;4968296;28;20533;-80
2022/08/10 06:15:23;;;;;;;0.30;0.30;;;;;;;;;;4968664;28;20057;-81
2022/08/10 06:18:13;;;;;;;1.95;0.43;;;;;;;;;;4969563;28;20051;-81
2022/08/10 06:20:42;;;;;;;0.30;0.30;;;;;;;;;;4969992;28;20047;-81
2022/08/10 06:23:11;;;;;;;0.20;0.20;;;;;;;;;;4969715;28;20110;-81
2022/08/10 06:25:40;;;;;;;0.20;0.20;;;;;;;;;;4970117;28;20050;-81
2022/08/10 06:28:33;;;;;;;0.22;0.22;;;;;;;;;;4968492;28;20054;-82
2022/08/10 06:31:02;;;;;;;0.30;0.22;;;;;;;;;;4969682;28;20054;-81
2022/08/10 06:33:35;;;;;;;0.85;0.40;;;;;;;;;;4970127;28;20051;-81
2022/08/10 06:36:07;;;;;;;0.10;0.10;;;;;;;;;;4969290;28;20081;-81
2022/08/10 06:38:36;;;;;;;1.23;0.68;;;;;;;;;;4969060;28;20047;-81
2022/08/10 06:41:09;;;;;;;0.47;0.30;;;;;;;;;;4970439;28;20266;-81
2022/08/10 06:43:41;;;;;;;0.17;0.17;;;;;;;;;;4970016;28;20082;-81
2022/08/10 06:46:13;;;;;;;0.28;0.25;;;;;;;;;;4968129;28;20105;-81
2022/08/10 06:48:43;;;;;;;0.40;0.40;;;;;;;;;;4967841;28;20061;-82
2022/08/10 06:51:14;;;;;;;1.13;0.60;;;;;;;;;;4968193;28;20153;-82
2022/08/10 06:53:47;;;;;;;0.40;0.30;;;;;;;;;;4967768;28;20053;-81
2022/08/10 06:56:22;;;;;;;0.10;0.10;;;;;;;;;;4966271;28;20058;-81
2022/08/10 06:59:10;;;;;;;0.20;0.20;;;;;;;;;;4967498;28;20058;-82
2022/08/10 07:01:50;;;;;;;0.10;0.10;;;;;;;;;;4967372;28;20055;-82
2022/08/10 07:04:23;;;;;;;1.77;0.15;;;;;;;;;;4964616;28;20061;-82
2022/08/10 07:07:02;;;;;;;0.28;0.20;;;;;;;;;;4965332;28;20061;-81
2022/08/10 07:09:31;;;;;;;0.30;0.30;;;;;;;;;;4967190;28;20495;-82
2022/08/10 07:12:00;;;;;;;1.08;0.82;;;;;;;;;;4964901;28;20090;-81
2022/08/10 07:14:39;;;;;;;0.40;0.40;;;;;;;;;;4965982;28;20425;-81
2022/08/10 07:17:08;;;;;;;0.40;0.38;;;;;;;;;;4963672;28;20150;-81
2022/08/10 07:19:44;;;;;;;0.47;0.47;;;;;;;;;;4966918;28;20050;-82
2022/08/10 07:22:21;;;;;;;0.15;0.15;;;;;;;;;;4966533;28;20050;-82
2022/08/10 07:25:11;;;;;;;0.35;0.20;;;;;;;;;;4962957;28;20065;-81
2022/08/10 07:27:41;;;;;;;0.20;0.20;;;;;;;;;;4965208;28;20130;-81
2022/08/10 07:30:30;;;;;;;0.20;0.20;;;;;;;;;;4959630;28;20193;-82
2022/08/10 07:33:01;;;;;;;0.45;0.45;;;;;;;;;;4962005;28;20047;-81
2022/08/10 07:35:29;;;;;;;1.50;0.70;;;;;;;;;;4965331;28;20424;-82
2022/08/10 07:38:12;;;;;;;0.93;0.70;;;;;;;;;;4967068;28;20094;-81
2022/08/10 07:40:41;;;;;;;0.20;0.20;;;;;;;;;;4965941;28;20130;-81
2022/08/10 07:43:10;;;;;;;0.20;0.20;;;;;;;;;;4966932;28;20050;-81
2022/08/10 07:45:40;;;;;;;0.65;0.45;;;;;;;;;;4966512;28;20443;-81
2022/08/10 07:48:12;;;;;;;0.10;0.10;;;;;;;;;;4970493;28;20058;-81
2022/08/10 07:50:41;;;;;;;0.55;0.30;;;;;;;;;;4968973;28;20680;-82
2022/08/10 07:53:12;;;;;;;0.30;0.30;;;;;;;;;;4969248;28;20058;-81
2022/08/10 07:55:41;;;;;;;0.45;0.43;;;;;;;;;;4969752;28;20043;-82
2022/08/10 07:58:31;;;;;;;0.30;0.30;;;;;;;;;;4965687;28;20051;-81
2022/08/10 08:01:01;;;;;;;0.70;0.68;;;;;;;;;;4969948;28;20141;-81
2022/08/10 08:03:36;;;;;;;0.85;0.57;;;;;;;;;;4969729;28;20109;-82
2022/08/10 08:06:07;;;;;;;0.20;0.20;;;;;;;;;;4968614;28;20137;-81
2022/08/10 08:08:41;;;;;;;5.38;0.75;;;;;;;;;;4969845;28;20106;-81
2022/08/10 08:11:09;;;;;;;1.10;0.40;;;;;;;;;;4970409;28;20078;-81
2022/08/10 08:13:54;;;;;;;2.38;0.82;;;;;;;;;;4959863;28;20420;-81
2022/08/10 08:16:24;;;;;;;0.88;0.43;;;;;;;;;;4968776;28;20145;-81
2022/08/10 08:18:54;;;;;;;6.57;0.65;;;;;;;;;;4968079;28;20097;-81
2022/08/10 08:21:43;;;;;;;0.40;0.22;;;;;;;;;;4969582;28;20042;-81
2022/08/10 08:24:33;;;;;;;0.43;0.30;;;;;;;;;;4969804;28;20527;-80
2022/08/10 08:27:02;;;;;;;0.17;0.17;;;;;;;;;;4967746;28;20043;-81
2022/08/10 08:29:34;;;;;;;0.40;0.40;;;;;;;;;;4971906;28;20050;-81
2022/08/10 08:32:04;;;;;;;1.27;0.57;;;;;;;;;;4972501;28;20042;-81
2022/08/10 08:34:33;;;;;;;0.22;0.22;;;;;;;;;;4971814;28;20175;-82
2022/08/10 08:37:03;;;;;;;0.90;0.60;;;;;;;;;;4970632;28;20070;-81
2022/08/10 08:39:31;;;;;;;0.55;0.35;;;;;;;;;;4971373;28;20113;-81
2022/08/10 08:42:27;;;;;;;1.70;0.98;;;;;;;;;;4972353;28;20054;-81
2022/08/10 08:44:56;;;;;;;;;;;;;;;;;;4926627;28;20085;-82
2022/08/10 08:47:33;;;;;;;0.28;0.28;;;;;;;;;;4970224;28;19922;-81
2022/08/10 08:50:28;;;;;;;0.60;0.40;;;;;;;;;;4965851;28;20051;-81
2022/08/10 08:53:00;;;;;;;0.22;0.22;;;;;;;;;;4968996;28;20109;-82
2022/08/10 08:55:43;;;;;;;0.30;0.20;;;;;;;;;;4967034;28;20051;-81
2022/08/10 08:58:37;;;;;;;0.30;0.30;;;;;;;;;;4964748;28;20050;-81
2022/08/10 09:01:19;;;;;;;1.07;0.97;;;;;;;;;;4971918;28;20102;-81
2022/08/10 09:04:11;;;;;;;0.45;0.40;;;;;;;;;;4972348;28;20059;-81
2022/08/10 09:07:07;;;;;;;0.50;0.45;;;;;;;;;;4963739;28;20608;-81
2022/08/10 09:10:03;;;;;;;0.35;0.30;;;;;;;;;;4971151;28;20129;-80
2022/08/10 09:12:36;;;;;;;1.17;0.65;;;;;;;;;;4971606;28;20094;-81
2022/08/10 09:15:06;;;;;;;2.38;0.82;;;;;;;;;;4970390;28;20344;-81
2022/08/10 09:17:40;;;;;;;4.47;1.15;;;;;;;;;;4966957;28;20130;-81
2022/08/10 09:20:14;;;;;;;0.30;0.30;;;;;;;;;;4972296;28;20459;-81
2022/08/10 09:22:47;;;;;;;0.22;0.22;;;;;;;;;;4971704;28;20051;-81
2022/08/10 09:25:18;;;;;;;0.65;0.50;;;;;;;;;;4970556;28;20553;-82
2022/08/10 09:27:47;;;;;;;0.25;0.22;;;;;;;;;;4970941;28;20058;-82
2022/08/10 09:30:18;;;;;;;1.92;0.43;;;;;;;;;;4971535;28;20138;-82
2022/08/10 09:32:59;;;;;;;0.47;0.47;;;;;;;;;;4971393;28;20047;-81
2022/08/10 09:35:52;;;;;;;0.70;0.45;;;;;;;;;;4970751;28;20049;-82
2022/08/10 09:38:48;;;;;;;0.30;0.30;;;;;;;;;;4970818;28;20050;-81
2022/08/10 09:41:20;;;;;;;0.32;0.20;;;;;;;;;;4970850;28;20074;-81
2022/08/10 09:43:52;;;;;;;1.30;0.82;;;;;;;;;;4970978;28;20086;-82
2022/08/10 09:46:26;;;;;;;1.05;0.55;;;;;;;;;;4968989;28;20133;-81
2022/08/10 09:48:59;;;;;;;0.63;0.30;;;;;;;;;;4966797;28;20322;-82
2022/08/10 09:51:32;;;;;;;0.32;0.30;;;;;;;;;;4960550;28;20129;-81
2022/08/10 09:54:30;;;;;;;0.73;0.73;;;;;;;;;;4970923;28;20094;-82
2022/08/10 09:57:04;;;;;;;0.20;0.20;;;;;;;;;;4967563;28;20051;-82
2022/08/10 09:59:57;;;;;;;2.47;0.60;;;;;;;;;;4970205;28;20045;-82
2022/08/10 10:02:35;;;;;;;0.40;0.32;;;;;;;;;;4970808;28;20113;-82
2022/08/10 10:05:07;;;;;;;0.50;0.50;;;;;;;;;;4969754;28;20089;-81
2022/08/10 10:07:40;;;;;;;0.15;0.13;;;;;;;;;;4970913;28;20575;-81
2022/08/10 10:10:11;;;;;;;2.08;0.60;;;;;;;;;;4961370;28;20137;-82
2022/08/10 10:12:43;;;;;;;0.30;0.30;;;;;;;;;;4970574;28;20050;-82
2022/08/10 10:15:19;;;;;;;0.25;0.25;;;;;;;;;;4970366;28;20047;-82
2022/08/10 10:18:05;;;;;;;0.30;0.30;;;;;;;;;;4970630;28;20051;-82
2022/08/10 10:20:38;;;;;;;0.22;0.22;;;;;;;;;;4966520;28;20129;-82
2022/08/10 10:23:14;;;;;;;0.20;0.20;;;;;;;;;;4968994;28;20125;-82
2022/08/10 10:25:45;;;;;;;1.15;0.40;;;;;;;;;;4970121;28;20043;-82
2022/08/10 10:28:29;;;;;;;0.40;0.30;;;;;;;;;;4970625;28;20078;-82
2022/08/10 10:31:22;;;;;;;1.00;0.50;;;;;;;;;;4970123;28;20057;-82
2022/08/10 10:33:54;;;;;;;0.25;0.20;;;;;;;;;;4970855;28;20055;-82
2022/08/10 10:36:24;;;;;;;0.20;0.20;;;;;;;;;;4967722;28;20078;-82
2022/08/10 10:38:54;;;;;;;0.10;0.10;;;;;;;;;;4969775;28;20129;-82
2022/08/10 10:41:30;;;;;;;0.38;0.38;;;;;;;;;;4968553;28;20071;-82
2022/08/10 10:44:27;;;;;;;1.02;0.20;;;;;;;;;;4970278;28;20436;-82
2022/08/10 10:47:06;;;;;;;0.60;0.32;;;;;;;;;;4969539;28;20051;-82
2022/08/10 10:49:43;;;;;;;0.20;0.20;;;;;;;;;;4970543;28;20047;-82
2022/08/10 10:52:18;;;;;;;1.65;0.25;;;;;;;;;;4969549;28;20135;-81
2022/08/10 10:55:03;;;;;;;2.15;0.35;;;;;;;;;;4969928;28;20046;-82
2022/08/10 10:57:36;;;;;;;0.40;0.40;;;;;;;;;;4917068;29;20055;-81
2022/08/10 11:00:26;;;;;;;0.30;0.30;;;;;;;;;;4947508;28;20139;-81
2022/08/10 11:03:01;;;;;;;0.57;0.43;;;;;;;;;;4944953;28;20071;-82
2022/08/10 11:05:46;;;;;;;0.55;0.40;;;;;;;;;;4948865;28;20075;-82
2022/08/10 11:08:17;;;;;;;0.40;0.40;;;;;;;;;;4947247;28;20083;-82
2022/08/10 11:10:49;;;;;;;0.57;0.52;;;;;;;;;;4950227;28;20086;-82
2022/08/10 11:13:25;;;;;;;0.75;0.50;;;;;;;;;;4947948;28;20233;-83
2022/08/10 11:16:17;;;;;;;1.35;0.32;;;;;;;;;;4953716;28;20463;-82
2022/08/10 11:18:51;;;;;;;0.65;0.30;;;;;;;;;;4954765;28;20186;-82
2022/08/10 11:21:25;;;;;;;0.30;0.22;;;;;;;;;;4952817;28;20558;-84
2022/08/10 11:23:57;;;;;;;0.37;0.30;;;;;;;;;;4957267;28;20420;-84
2022/08/10 11:26:49;;;;;;;0.15;0.15;;;;;;;;;;4961427;28;20482;-83
2022/08/10 11:29:20;;;;;;;0.80;0.30;;;;;;;;;;4972457;28;20138;-83
2022/08/10 11:31:52;;;;;;;1.58;0.60;;;;;;;;;;4973388;28;20051;-83
2022/08/10 11:34:26;;;;;;;0.50;0.43;;;;;;;;;;4973679;28;20058;-83
2022/08/10 11:37:19;;;;;;;0.45;0.22;;;;;;;;;;4953457;28;20407;-83
2022/08/10 11:39:51;;;;;;;0.80;0.50;;;;;;;;;;4952389;28;20047;-83
2022/08/10 11:42:30;;;;;;;0.40;0.40;;;;;;;;;;4954370;28;20052;-83
2022/08/10 11:45:06;;;;;;;0.32;0.30;;;;;;;;;;4953169;28;20043;-83
2022/08/10 11:47:37;;;;;;;1.23;0.22;;;;;;;;;;4953053;28;20047;-83
2022/08/10 11:50:09;;;;;;;1.48;0.30;;;;;;;;;;4953817;28;20051;-83
2022/08/10 11:52:40;;;;;;;1.63;0.28;;;;;;;;;;4952948;28;20106;-83
2022/08/10 11:55:13;;;;;;;0.47;0.30;;;;;;;;;;4953336;28;20055;-83
2022/08/10 11:57:45;;;;;;;0.65;0.38;;;;;;;;;;4946831;28;20099;-83
2022/08/10 12:00:22;;;;;;;0.47;0.40;;;;;;;;;;4946331;28;20138;-83
2022/08/10 12:02:53;;;;;;;3.05;0.40;;;;;;;;;;4950280;29;20106;-83
2022/08/10 12:05:23;;;;;;;0.50;0.47;;;;;;;;;;4951883;28;20092;-83
2022/08/10 12:08:13;;;;;;;0.77;0.25;;;;;;;;;;4952625;28;20105;-84
2022/08/10 12:11:01;;;;;;;1.95;0.30;;;;;;;;;;4951858;28;20074;-84
2022/08/10 12:13:37;;;;;;;0.90;0.45;;;;;;;;;;4949578;28;20599;-83
2022/08/10 12:16:09;;;;;;;0.32;0.30;;;;;;;;;;4950559;28;20066;-83
2022/08/10 12:18:44;;;;;;;0.30;0.30;;;;;;;;;;4959201;28;20153;-84
2022/08/10 12:21:16;;;;;;;0.32;0.32;;;;;;;;;;4945613;28;20165;-84
2022/08/10 12:23:51;;;;;;;0.25;0.20;;;;;;;;;;4945257;28;20142;-83
2022/08/10 12:26:35;;;;;;;0.30;0.20;;;;;;;;;;4952932;28;20087;-83
2022/08/10 12:29:09;;;;;;;0.30;0.30;;;;;;;;;;4947197;28;20047;-83
2022/08/10 12:31:40;;;;;;;0.20;0.20;;;;;;;;;;4953190;28;20137;-83
2022/08/10 12:34:17;;;;;;;2.75;0.35;;;;;;;;;;4952501;28;20104;-83
2022/08/10 12:36:48;;;;;;;0.30;0.30;;;;;;;;;;4954805;28;20570;-83
2022/08/10 12:39:19;;;;;;;0.60;0.40;;;;;;;;;;4953429;28;20051;-83
2022/08/10 12:41:51;;;;;;;0.40;0.40;;;;;;;;;;4952958;28;20054;-83
2022/08/10 12:44:23;;;;;;;0.30;0.30;;;;;;;;;;4950363;28;20047;-83
2022/08/10 12:47:13;;;;;;;1.85;0.45;;;;;;;;;;4952333;28;20063;-83
2022/08/10 12:49:47;;;;;;;0.77;0.40;;;;;;;;;;4946330;28;20351;-83
2022/08/10 12:52:43;;;;;;;0.65;0.20;;;;;;;;;;4953194;28;20534;-83
2022/08/10 12:55:12;;;;;;;1.20;0.35;;;;;;;;;;4951452;28;20479;-82
2022/08/10 12:57:41;;;;;;;0.30;0.30;;;;;;;;;;4950207;28;20102;-83
2022/08/10 13:00:14;;;;;;;1.58;0.35;;;;;;;;;;4952737;28;20142;-83
2022/08/10 13:02:45;;;;;;;0.35;0.32;;;;;;;;;;4952975;28;20055;-83
2022/08/10 13:05:16;;;;;;;1.25;0.32;;;;;;;;;;4951535;28;20130;-82
2022/08/10 13:07:46;;;;;;;0.50;0.45;;;;;;;;;;4951708;28;20447;-83
2022/08/10 13:10:42;;;;;;;3.83;0.32;;;;;;;;;;4946363;28;20044;-82
2022/08/10 13:13:13;;;;;;;1.33;0.45;;;;;;;;;;4949767;28;20055;-83
2022/08/10 13:15:45;;;;;;;0.20;0.10;;;;;;;;;;4951283;28;20053;-82
2022/08/10 13:18:23;;;;;;;0.35;0.20;;;;;;;;;;4955135;28;20047;-83
2022/08/10 13:20:53;;;;;;;0.40;0.40;;;;;;;;;;4952671;28;20396;-83
2022/08/10 13:23:22;;;;;;;0.40;0.20;;;;;;;;;;4948846;28;20107;-82
2022/08/10 13:25:52;;;;;;;0.88;0.47;;;;;;;;;;4943943;28;20702;-82
2022/08/10 13:28:23;;;;;;;0.75;0.40;;;;;;;;;;4948756;28;20051;-82
2022/08/10 13:31:11;;;;;;;0.47;0.27;;;;;;;;;;4952040;28;20055;-82
2022/08/10 13:33:46;;;;;;;0.50;0.40;;;;;;;;;;4951508;28;20050;-82
2022/08/10 13:36:36;;;;;;;0.28;0.28;;;;;;;;;;4954969;28;20039;-83
2022/08/10 13:39:06;;;;;;;0.68;0.47;;;;;;;;;;4949668;28;20074;-82
2022/08/10 13:41:38;;;;;;;1.15;0.63;;;;;;;;;;4954675;28;20051;-82
2022/08/10 13:44:07;;;;;;;3.90;0.25;;;;;;;;;;4948336;28;20071;-83
2022/08/10 13:46:39;;;;;;;0.15;0.15;;;;;;;;;;4944302;28;20141;-82
2022/08/10 13:49:08;;;;;;;0.60;0.40;;;;;;;;;;4951710;28;20480;-82
2022/08/10 13:51:38;;;;;;;0.32;0.32;;;;;;;;;;4951774;28;20484;-82
2022/08/10 13:54:26;;;;;;;0.20;0.20;;;;;;;;;;4949158;28;20062;-82
2022/08/10 13:56:54;;;;;;;0.70;0.40;;;;;;;;;;4950198;28;20094;-82
2022/08/10 13:59:25;;;;;;;0.70;0.30;;;;;;;;;;4948406;28;20075;-82
2022/08/10 14:02:17;;;;;;;0.30;0.20;;;;;;;;;;4950109;28;20142;-82
2022/08/10 14:04:46;;;;;;;0.20;0.20;;;;;;;;;;4951695;28;20555;-83
2022/08/10 14:07:17;;;;;;;0.60;0.32;;;;;;;;;;4949205;28;20496;-82
2022/08/10 14:09:47;;;;;;;0.57;0.32;;;;;;;;;;4951796;28;20055;-82
2022/08/10 14:12:17;;;;;;;0.28;0.28;;;;;;;;;;4944308;28;20063;-82
2022/08/10 14:14:59;;;;;;;0.65;0.30;;;;;;;;;;4950609;28;20065;-82
2022/08/10 14:17:29;;;;;;;0.20;0.20;;;;;;;;;;4950417;28;20134;-82
2022/08/10 14:19:59;;;;;;;0.65;0.40;;;;;;;;;;4951360;28;20043;-82
2022/08/10 14:22:30;;;;;;;0.20;0.20;;;;;;;;;;4951099;28;20475;-83
2022/08/10 14:25:05;;;;;;;0.45;0.22;;;;;;;;;;4950733;28;20099;-82
2022/08/10 14:27:34;;;;;;;0.63;0.47;;;;;;;;;;4950924;28;20059;-83
2022/08/10 14:30:23;;;;;;;1.63;0.60;;;;;;;;;;4944837;28;20303;-82
2022/08/10 14:33:02;;;;;;;0.30;0.30;;;;;;;;;;4950641;28;20059;-82
2022/08/10 14:35:34;;;;;;;0.20;0.20;;;;;;;;;;4945478;28;20106;-82
2022/08/10 14:38:23;;;;;;;0.40;0.40;;;;;;;;;;4948182;28;20065;-82
2022/08/10 14:40:53;;;;;;;0.50;0.40;;;;;;;;;;4951113;28;20137;-82
2022/08/10 14:43:24;;;;;;;0.13;0.13;;;;;;;;;;4951053;28;20090;-82
2022/08/10 14:45:57;;;;;;;0.47;0.30;;;;;;;;;;4958276;28;20532;-82
2022/08/10 14:48:31;;;;;;;0.65;0.40;;;;;;;;;;4970037;28;20522;-82
2022/08/10 14:51:01;;;;;;;0.30;0.25;;;;;;;;;;4970294;28;20054;-83
2022/08/10 14:53:32;;;;;;;0.45;0.45;;;;;;;;;;4968222;28;20070;-82
2022/08/10 14:56:11;;;;;;;0.60;0.45;;;;;;;;;;4970097;28;20138;-82
2022/08/10 14:58:43;;;;;;;0.45;0.43;;;;;;;;;;4965732;28;20066;-82
2022/08/10 15:01:32;;;;;;;0.40;0.40;;;;;;;;;;4973868;28;20050;-82
2022/08/10 15:04:23;;;;;;;0.43;0.20;;;;;;;;;;4967605;28;20051;-82
2022/08/10 15:06:55;;;;;;;;;;;;;;;;;;4973950;28;20113;-82
2022/08/10 15:09:25;;;;;;;0.50;0.28;;;;;;;;;;4964592;28;19922;-82
2022/08/10 15:11:58;;;;;;;0.82;0.32;;;;;;;;;;4974173;28;20055;-82
2022/08/10 15:14:44;;;;;;;0.40;0.25;;;;;;;;;;4974208;28;20097;-82
2022/08/10 15:17:14;;;;;;;0.47;0.32;;;;;;;;;;4973510;28;20063;-82
2022/08/10 15:19:47;;;;;;;4.43;0.68;;;;;;;;;;4973277;28;20078;-82
2022/08/10 15:22:36;;;;;;;0.20;0.20;;;;;;;;;;4971956;28;20050;-82
2022/08/10 15:25:07;;;;;;;0.43;0.30;;;;;;;;;;4972950;28;20138;-82
2022/08/10 15:27:47;;;;;;;0.20;0.20;;;;;;;;;;4973573;28;20125;-82
2022/08/10 15:30:26;;;;;;;0.90;0.68;;;;;;;;;;4971282;28;20074;-82
2022/08/10 15:39:03;;;;;;;0.40;0.30;;;;;;;;;;4973472;28;20133;-82
2022/08/10 15:41:42;;;;;;;0.68;0.32;;;;;;;;;;4972871;28;20511;-83
2022/08/10 15:44:35;;;;;;;0.35;0.35;;;;;;;;;;4970041;28;20142;-82
2022/08/10 15:47:05;;;;;;;0.20;0.20;;;;;;;;;;4970321;28;20062;-81